Time;durP1;ratioP1;P1;durP2;ratioP2;P2;SDS_P1;SDS_P2;PMS_P1;PMS_P2;Temp;Humidity;BMP_temperature;BMP_pressure;BME280_temperature;BME280_humidity;BME280_pressure;Samples;Min_cycle;Max_cycle;Signal;HPM_P1;HPM_P2
2023/12/15 00:02:19;;;;;;;6.70;4.83;;;;;;;;;;5030726;28;20209;-62
2023/12/15 00:04:46;;;;;;;6.83;4.70;;;;;;;;;;5041251;28;20210;-62
2023/12/15 00:07:13;;;;;;;8.20;4.63;;;;;;;;;;5046643;28;20254;-62
2023/12/15 00:09:41;;;;;;;7.77;4.57;;;;;;;;;;5030116;28;20208;-61
2023/12/15 00:12:09;;;;;;;5.97;4.17;;;;;;;;;;5047210;28;20212;-62
2023/12/15 00:14:36;;;;;;;7.47;5.20;;;;;;;;;;5032363;28;20591;-63
2023/12/15 00:17:03;;;;;;;8.93;5.70;;;;;;;;;;5045520;28;20246;-64
2023/12/15 00:19:30;;;;;;;6.70;5.13;;;;;;;;;;5047570;28;20231;-64
2023/12/15 00:21:57;;;;;;;10.33;5.73;;;;;;;;;;5040492;28;20207;-64
2023/12/15 00:24:24;;;;;;;9.57;5.07;;;;;;;;;;5048866;28;20219;-64
2023/12/15 00:26:53;;;;;;;6.10;5.03;;;;;;;;;;5047259;28;20208;-64
2023/12/15 00:29:20;;;;;;;8.57;4.80;;;;;;;;;;5039382;28;20295;-63
2023/12/15 00:31:47;;;;;;;7.40;4.73;;;;;;;;;;5043503;28;20207;-64
2023/12/15 00:34:14;;;;;;;10.70;5.47;;;;;;;;;;5048368;28;20215;-64
2023/12/15 00:36:41;;;;;;;8.00;5.47;;;;;;;;;;5047506;28;20204;-64
2023/12/15 00:39:08;;;;;;;9.67;5.73;;;;;;;;;;5035779;28;20255;-63
2023/12/15 00:41:35;;;;;;;6.50;5.10;;;;;;;;;;5040541;28;20212;-63
2023/12/15 00:44:04;;;;;;;7.77;4.80;;;;;;;;;;5039656;28;20216;-63
2023/12/15 00:46:32;;;;;;;8.33;5.03;;;;;;;;;;5048174;28;20207;-63
2023/12/15 00:48:59;;;;;;;9.67;5.27;;;;;;;;;;5046625;28;20294;-64
2023/12/15 00:51:26;;;;;;;11.33;5.37;;;;;;;;;;5032593;28;20239;-64
2023/12/15 00:53:53;;;;;;;7.73;4.93;;;;;;;;;;5041455;28;20207;-64
2023/12/15 00:56:20;;;;;;;8.90;5.60;;;;;;;;;;5038401;28;20203;-63
2023/12/15 00:58:47;;;;;;;10.30;5.37;;;;;;;;;;5035969;28;20224;-63
2023/12/15 01:01:15;;;;;;;9.50;5.27;;;;;;;;;;5031656;28;20208;-63
2023/12/15 01:03:42;;;;;;;10.50;5.30;;;;;;;;;;5032703;28;20212;-63
2023/12/15 01:06:09;;;;;;;12.70;5.97;;;;;;;;;;5047206;28;20212;-64
2023/12/15 01:08:36;;;;;;;9.67;5.63;;;;;;;;;;5046389;28;20207;-64
2023/12/15 01:11:03;;;;;;;9.20;5.17;;;;;;;;;;5045780;28;20208;-63
2023/12/15 01:13:30;;;;;;;7.80;5.13;;;;;;;;;;5046524;28;20210;-63
2023/12/15 01:15:57;;;;;;;13.87;6.30;;;;;;;;;;5041934;28;20700;-63
2023/12/15 01:18:26;;;;;;;9.80;5.60;;;;;;;;;;5034337;28;20247;-63
2023/12/15 01:20:53;;;;;;;14.37;6.13;;;;;;;;;;5042404;28;20234;-63
2023/12/15 01:23:20;;;;;;;11.97;6.27;;;;;;;;;;5044889;28;20669;-64
2023/12/15 01:25:47;;;;;;;9.97;5.57;;;;;;;;;;5038284;28;20212;-64
2023/12/15 01:28:14;;;;;;;9.50;5.33;;;;;;;;;;5043517;28;20211;-63
2023/12/15 01:30:41;;;;;;;10.87;5.70;;;;;;;;;;5035024;28;20218;-63
2023/12/15 01:33:08;;;;;;;13.53;5.63;;;;;;;;;;5041172;28;20224;-63
2023/12/15 01:35:36;;;;;;;11.50;5.90;;;;;;;;;;5038347;28;20556;-64
2023/12/15 01:38:03;;;;;;;12.43;5.90;;;;;;;;;;5028826;28;21001;-63
2023/12/15 01:40:30;;;;;;;12.70;6.27;;;;;;;;;;5034148;28;20207;-63
2023/12/15 01:42:59;;;;;;;10.70;5.97;;;;;;;;;;5047154;28;20211;-64
2023/12/15 01:45:26;;;;;;;12.67;6.00;;;;;;;;;;5045403;28;20204;-63
2023/12/15 01:47:54;;;;;;;11.27;6.63;;;;;;;;;;5036245;28;20781;-63
2023/12/15 01:50:21;;;;;;;14.30;6.73;;;;;;;;;;5034852;28;20200;-63
2023/12/15 01:52:49;;;;;;;12.67;6.53;;;;;;;;;;5035817;28;20609;-63
2023/12/15 01:55:16;;;;;;;11.20;6.40;;;;;;;;;;5043855;28;20220;-64
2023/12/15 01:57:44;;;;;;;11.00;6.23;;;;;;;;;;5044930;28;20428;-63
2023/12/15 02:00:11;;;;;;;11.33;6.80;;;;;;;;;;5040857;28;20220;-63
2023/12/15 02:02:38;;;;;;;11.73;6.13;;;;;;;;;;5038780;28;20203;-63
2023/12/15 02:05:05;;;;;;;9.90;5.57;;;;;;;;;;5045707;28;20223;-63
2023/12/15 02:07:32;;;;;;;11.60;6.43;;;;;;;;;;5043439;28;20215;-63
2023/12/15 02:10:01;;;;;;;9.43;5.50;;;;;;;;;;5040402;28;20196;-63
2023/12/15 02:12:28;;;;;;;11.30;5.13;;;;;;;;;;5035501;28;20662;-63
2023/12/15 02:14:55;;;;;;;9.27;5.60;;;;;;;;;;5025340;28;20261;-63
2023/12/15 02:17:22;;;;;;;8.13;4.87;;;;;;;;;;5030278;28;20236;-63
2023/12/15 02:19:49;;;;;;;13.00;5.13;;;;;;;;;;5044742;28;20239;-63
2023/12/15 02:22:15;;;;;;;9.83;5.50;;;;;;;;;;5034363;28;20212;-63
2023/12/15 02:24:43;;;;;;;9.23;5.20;;;;;;;;;;5045834;28;20250;-61
2023/12/15 02:27:10;;;;;;;12.43;6.30;;;;;;;;;;5036389;28;20223;-63
2023/12/15 02:29:37;;;;;;;8.23;5.07;;;;;;;;;;5044746;28;20206;-63
2023/12/15 02:32:05;;;;;;;9.37;5.57;;;;;;;;;;5046406;28;20246;-63
2023/12/15 02:34:32;;;;;;;9.23;5.93;;;;;;;;;;5044081;28;20219;-63
2023/12/15 02:36:59;;;;;;;8.83;4.97;;;;;;;;;;5044119;28;20207;-64
2023/12/15 02:39:26;;;;;;;10.63;5.47;;;;;;;;;;5045041;28;20269;-63
2023/12/15 02:41:54;;;;;;;8.90;5.27;;;;;;;;;;5045253;28;20214;-64
2023/12/15 02:44:21;;;;;;;10.00;5.20;;;;;;;;;;5044547;28;20211;-63
2023/12/15 02:46:48;;;;;;;9.17;6.07;;;;;;;;;;5039997;28;20207;-63
2023/12/15 02:49:18;;;;;;;8.77;5.67;;;;;;;;;;5029408;28;20206;-63
2023/12/15 02:51:45;;;;;;;8.73;5.47;;;;;;;;;;5044341;28;20239;-63
2023/12/15 02:54:12;;;;;;;9.43;5.77;;;;;;;;;;5037265;28;20219;-63
2023/12/15 02:56:39;;;;;;;8.53;5.30;;;;;;;;;;5045134;28;20670;-63
2023/12/15 02:59:08;;;;;;;10.87;6.03;;;;;;;;;;5045602;28;20220;-63
2023/12/15 03:01:35;;;;;;;9.03;5.73;;;;;;;;;;5042579;28;20210;-63
2023/12/15 03:04:02;;;;;;;10.37;5.73;;;;;;;;;;5034277;28;20910;-63
2023/12/15 03:06:29;;;;;;;11.87;5.50;;;;;;;;;;5037489;28;20208;-63
2023/12/15 03:08:56;;;;;;;9.40;5.73;;;;;;;;;;5039225;28;20204;-63
2023/12/15 03:11:23;;;;;;;7.67;4.63;;;;;;;;;;5037307;28;20204;-63
2023/12/15 03:13:50;;;;;;;9.27;6.10;;;;;;;;;;5041765;28;20208;-63
2023/12/15 03:16:19;;;;;;;8.87;5.90;;;;;;;;;;5044065;28;20215;-63
2023/12/15 03:18:46;;;;;;;15.23;5.80;;;;;;;;;;5043005;28;20243;-63
2023/12/15 03:21:13;;;;;;;13.90;6.53;;;;;;;;;;5030595;28;20201;-63
2023/12/15 03:23:40;;;;;;;12.20;6.67;;;;;;;;;;5036630;28;20668;-63
2023/12/15 03:26:07;;;;;;;11.60;6.07;;;;;;;;;;5044099;28;20204;-63
2023/12/15 03:28:34;;;;;;;12.87;6.37;;;;;;;;;;5044287;28;20212;-63
2023/12/15 03:31:01;;;;;;;11.60;6.37;;;;;;;;;;5045068;28;20207;-63
2023/12/15 03:33:34;;;;;;;11.53;6.43;;;;;;;;;;5043562;28;20230;-63
2023/12/15 03:36:01;;;;;;;11.97;6.57;;;;;;;;;;5034254;28;20204;-63
2023/12/15 03:38:28;;;;;;;10.80;5.70;;;;;;;;;;5043032;28;20230;-63
2023/12/15 03:40:55;;;;;;;11.53;6.17;;;;;;;;;;5046630;28;20451;-63
2023/12/15 03:43:22;;;;;;;11.93;5.70;;;;;;;;;;5047353;28;20466;-63
2023/12/15 03:45:49;;;;;;;11.40;6.10;;;;;;;;;;5048952;28;20207;-63
2023/12/15 03:48:16;;;;;;;9.07;6.17;;;;;;;;;;5044951;28;20238;-63
2023/12/15 03:50:45;;;;;;;12.30;5.70;;;;;;;;;;5047250;28;20628;-63
2023/12/15 03:53:12;;;;;;;10.47;5.63;;;;;;;;;;5037927;28;20572;-63
2023/12/15 03:55:39;;;;;;;9.60;6.07;;;;;;;;;;5043340;28;20230;-63
2023/12/15 03:58:06;;;;;;;12.57;6.10;;;;;;;;;;5040470;28;20203;-63
2023/12/15 04:00:33;;;;;;;11.23;6.43;;;;;;;;;;5046640;28;20772;-63
2023/12/15 04:03:00;;;;;;;11.77;6.97;;;;;;;;;;5044862;28;20261;-64
2023/12/15 04:05:27;;;;;;;15.37;7.23;;;;;;;;;;5044104;28;20211;-63
2023/12/15 04:07:55;;;;;;;14.93;7.20;;;;;;;;;;5046691;28;20444;-63
2023/12/15 04:10:22;;;;;;;13.37;7.20;;;;;;;;;;5039985;28;20204;-63
2023/12/15 04:12:49;;;;;;;10.87;7.10;;;;;;;;;;5045590;28;20204;-63
2023/12/15 04:15:18;;;;;;;13.70;7.47;;;;;;;;;;5041752;28;20732;-61
2023/12/15 04:17:45;;;;;;;9.67;6.73;;;;;;;;;;5046112;28;20243;-62
2023/12/15 04:20:13;;;;;;;9.83;6.40;;;;;;;;;;5028820;28;20721;-62
2023/12/15 04:22:40;;;;;;;12.13;6.70;;;;;;;;;;5046156;28;20235;-61
2023/12/15 04:25:08;;;;;;;11.47;6.13;;;;;;;;;;5048591;28;20217;-62
2023/12/15 04:27:35;;;;;;;12.00;6.40;;;;;;;;;;5048385;28;20582;-61
2023/12/15 04:30:02;;;;;;;15.93;6.80;;;;;;;;;;5045422;28;20208;-62
2023/12/15 04:32:29;;;;;;;11.07;6.83;;;;;;;;;;5048481;28;20204;-61
2023/12/15 04:34:56;;;;;;;13.43;7.20;;;;;;;;;;5047089;28;20217;-62
2023/12/15 04:37:23;;;;;;;15.70;7.00;;;;;;;;;;5048405;28;20210;-62
2023/12/15 04:39:51;;;;;;;12.40;7.20;;;;;;;;;;5043379;28;20228;-62
2023/12/15 04:42:19;;;;;;;9.57;5.87;;;;;;;;;;5048027;28;20199;-62
2023/12/15 04:44:46;;;;;;;10.47;6.27;;;;;;;;;;5047629;28;20207;-62
2023/12/15 04:47:13;;;;;;;10.43;6.33;;;;;;;;;;5047209;28;20203;-62
2023/12/15 04:49:40;;;;;;;13.47;6.60;;;;;;;;;;5047475;28;20204;-62
2023/12/15 04:52:07;;;;;;;11.97;6.47;;;;;;;;;;5042254;28;20241;-62
2023/12/15 04:54:34;;;;;;;11.60;6.70;;;;;;;;;;5030849;28;20204;-62
2023/12/15 04:57:01;;;;;;;12.83;6.67;;;;;;;;;;5042482;28;20208;-62
2023/12/15 04:59:30;;;;;;;11.17;6.57;;;;;;;;;;5028182;28;20339;-62
2023/12/15 05:01:57;;;;;;;11.47;6.83;;;;;;;;;;5044501;28;20200;-62
2023/12/15 05:04:24;;;;;;;10.90;6.47;;;;;;;;;;5029140;28;20585;-62
2023/12/15 05:06:51;;;;;;;12.50;6.53;;;;;;;;;;5039554;28;20204;-62
2023/12/15 05:09:18;;;;;;;12.07;6.00;;;;;;;;;;5041235;28;20710;-62
2023/12/15 05:11:45;;;;;;;11.23;6.60;;;;;;;;;;5043786;28;20208;-63
2023/12/15 05:14:12;;;;;;;11.80;6.83;;;;;;;;;;5046347;28;20212;-62
2023/12/15 05:16:41;;;;;;;13.33;7.13;;;;;;;;;;5037632;28;20258;-61
2023/12/15 05:19:08;;;;;;;18.23;6.90;;;;;;;;;;5047166;28;20693;-62
2023/12/15 05:21:35;;;;;;;13.30;6.73;;;;;;;;;;5044227;28;20219;-62
2023/12/15 05:24:03;;;;;;;12.90;7.47;;;;;;;;;;5047329;28;20226;-62
2023/12/15 05:26:30;;;;;;;9.33;5.93;;;;;;;;;;5047334;28;20226;-62
2023/12/15 05:28:58;;;;;;;11.77;6.57;;;;;;;;;;5047351;28;20211;-62
2023/12/15 05:31:25;;;;;;;12.43;6.50;;;;;;;;;;5047020;28;20195;-62
2023/12/15 05:33:53;;;;;;;12.13;6.03;;;;;;;;;;5047061;28;20215;-62
2023/12/15 05:36:20;;;;;;;11.57;6.83;;;;;;;;;;5046457;28;20693;-62
2023/12/15 05:38:47;;;;;;;11.47;6.03;;;;;;;;;;5047267;28;20204;-63
2023/12/15 05:41:15;;;;;;;11.33;6.90;;;;;;;;;;5046771;28;20726;-62
2023/12/15 05:43:44;;;;;;;10.60;7.27;;;;;;;;;;5047158;28;20214;-62
2023/12/15 05:46:11;;;;;;;11.10;6.17;;;;;;;;;;5033486;28;20204;-62
2023/12/15 05:48:38;;;;;;;13.10;6.30;;;;;;;;;;5039009;28;20250;-63
2023/12/15 05:51:08;;;;;;;11.40;6.83;;;;;;;;;;5030911;28;20659;-62
2023/12/15 05:53:35;;;;;;;11.60;6.90;;;;;;;;;;5038759;28;20310;-62
2023/12/15 05:56:02;;;;;;;11.07;6.33;;;;;;;;;;5035190;28;20211;-61
2023/12/15 05:58:29;;;;;;;12.47;6.60;;;;;;;;;;5043635;28;20212;-63
2023/12/15 06:00:56;;;;;;;11.53;7.23;;;;;;;;;;5040215;28;20611;-63
2023/12/15 06:03:23;;;;;;;12.30;6.50;;;;;;;;;;5046026;28;20285;-63
2023/12/15 06:05:50;;;;;;;9.97;6.60;;;;;;;;;;5035127;28;20209;-62
2023/12/15 06:08:19;;;;;;;13.80;6.67;;;;;;;;;;5040503;28;20220;-62
2023/12/15 06:10:46;;;;;;;9.53;6.47;;;;;;;;;;5028048;28;20689;-63
2023/12/15 06:13:13;;;;;;;10.10;6.23;;;;;;;;;;5027018;28;20216;-62
2023/12/15 06:15:40;;;;;;;9.87;6.87;;;;;;;;;;5027070;28;20581;-63
2023/12/15 06:18:07;;;;;;;9.47;6.50;;;;;;;;;;5029729;28;20715;-63
2023/12/15 06:20:34;;;;;;;13.30;6.33;;;;;;;;;;5030872;28;20243;-62
2023/12/15 06:23:02;;;;;;;12.33;6.40;;;;;;;;;;5039271;28;20214;-62
2023/12/15 06:25:30;;;;;;;10.67;5.77;;;;;;;;;;5040541;28;20207;-62
2023/12/15 06:27:57;;;;;;;8.83;6.03;;;;;;;;;;5045675;28;20222;-63
2023/12/15 06:30:24;;;;;;;11.50;6.50;;;;;;;;;;5036629;28;20206;-64
2023/12/15 06:32:51;;;;;;;11.80;6.23;;;;;;;;;;5029078;28;20262;-64
2023/12/15 06:35:19;;;;;;;9.13;5.83;;;;;;;;;;5026599;28;20219;-63
2023/12/15 06:37:46;;;;;;;11.47;6.73;;;;;;;;;;5033109;28;20207;-63
2023/12/15 06:40:13;;;;;;;9.70;5.70;;;;;;;;;;5029139;28;20224;-63
2023/12/15 06:42:41;;;;;;;8.77;5.97;;;;;;;;;;5035221;28;20358;-63
2023/12/15 06:45:09;;;;;;;8.27;5.97;;;;;;;;;;5026428;28;20209;-63
2023/12/15 06:47:38;;;;;;;9.23;5.70;;;;;;;;;;5026443;28;20223;-63
2023/12/15 06:50:06;;;;;;;10.13;5.90;;;;;;;;;;5027487;28;20313;-63
2023/12/15 06:52:33;;;;;;;8.93;5.03;;;;;;;;;;5046043;28;20222;-62
2023/12/15 06:55:00;;;;;;;10.03;6.10;;;;;;;;;;5034521;28;20208;-63
2023/12/15 06:57:28;;;;;;;7.73;5.53;;;;;;;;;;5026129;28;20247;-63
2023/12/15 06:59:56;;;;;;;11.20;6.30;;;;;;;;;;5037593;28;20223;-63
2023/12/15 07:02:23;;;;;;;11.60;5.80;;;;;;;;;;5045799;28;20380;-63
2023/12/15 07:04:50;;;;;;;11.30;5.90;;;;;;;;;;5046026;28;20215;-63
2023/12/15 07:07:17;;;;;;;9.07;5.87;;;;;;;;;;5046231;28;20577;-63
2023/12/15 07:09:44;;;;;;;11.47;6.27;;;;;;;;;;5038378;28;20207;-63
2023/12/15 07:12:11;;;;;;;11.33;5.90;;;;;;;;;;5049999;28;20203;-63
2023/12/15 07:14:38;;;;;;;9.93;6.53;;;;;;;;;;5050093;28;20203;-63
2023/12/15 07:17:07;;;;;;;8.67;6.10;;;;;;;;;;5049861;28;20253;-63
2023/12/15 07:19:34;;;;;;;10.43;6.20;;;;;;;;;;5048475;28;20216;-63
2023/12/15 07:22:01;;;;;;;10.03;6.03;;;;;;;;;;5050202;28;20239;-63
2023/12/15 07:24:29;;;;;;;12.33;6.60;;;;;;;;;;5035849;28;20211;-63
2023/12/15 07:26:56;;;;;;;10.80;6.07;;;;;;;;;;5030088;28;20211;-63
2023/12/15 07:29:24;;;;;;;8.43;6.13;;;;;;;;;;5034470;28;20204;-63
2023/12/15 07:31:51;;;;;;;8.77;5.33;;;;;;;;;;5042788;28;20283;-63
2023/12/15 07:34:20;;;;;;;9.73;5.77;;;;;;;;;;5029728;28;20204;-63
2023/12/15 07:36:47;;;;;;;9.80;5.90;;;;;;;;;;5029782;28;20641;-63
2023/12/15 07:39:20;;;;;;;9.97;5.53;;;;;;;;;;5029526;28;20223;-63
2023/12/15 07:41:48;;;;;;;11.10;6.00;;;;;;;;;;5039296;28;20307;-63
2023/12/15 07:44:15;;;;;;;10.10;6.20;;;;;;;;;;5049348;28;20287;-63
2023/12/15 07:46:42;;;;;;;10.83;5.83;;;;;;;;;;5049605;28;20206;-63
2023/12/15 07:49:09;;;;;;;10.17;6.50;;;;;;;;;;5049270;28;20210;-63
2023/12/15 07:51:37;;;;;;;11.60;6.10;;;;;;;;;;5047644;28;20199;-63
2023/12/15 07:54:25;;;;;;;10.03;5.87;;;;;;;;;;5048942;28;20214;-63
2023/12/15 07:56:52;;;;;;;11.37;6.53;;;;;;;;;;5033336;28;20534;-63
2023/12/15 07:59:19;;;;;;;11.87;6.90;;;;;;;;;;5040456;28;20805;-63
2023/12/15 08:01:50;;;;;;;10.43;6.30;;;;;;;;;;5041654;28;20242;-64
2023/12/15 08:04:17;;;;;;;9.33;5.77;;;;;;;;;;5049296;28;20219;-64
2023/12/15 08:06:46;;;;;;;9.90;6.50;;;;;;;;;;5049129;28;20310;-63
2023/12/15 08:09:13;;;;;;;14.13;8.03;;;;;;;;;;5049205;28;20277;-64
2023/12/15 08:11:40;;;;;;;16.23;8.00;;;;;;;;;;5048812;28;20204;-64
2023/12/15 08:14:07;;;;;;;15.33;7.70;;;;;;;;;;5048145;28;20215;-63
2023/12/15 08:16:34;;;;;;;11.17;7.53;;;;;;;;;;5048560;28;20532;-64
2023/12/15 08:19:03;;;;;;;13.00;6.73;;;;;;;;;;5047795;28;20211;-64
2023/12/15 08:21:30;;;;;;;9.70;6.23;;;;;;;;;;5048243;28;20907;-63
2023/12/15 08:23:59;;;;;;;8.90;5.80;;;;;;;;;;5042680;28;20216;-63
2023/12/15 08:26:28;;;;;;;12.07;6.80;;;;;;;;;;5029234;28;20216;-63
2023/12/15 08:28:55;;;;;;;11.23;6.20;;;;;;;;;;5028841;28;20651;-63
2023/12/15 08:31:22;;;;;;;10.93;5.90;;;;;;;;;;5028760;28;20207;-63
2023/12/15 08:33:49;;;;;;;10.13;6.47;;;;;;;;;;5028927;28;20208;-64
2023/12/15 08:36:16;;;;;;;9.10;6.13;;;;;;;;;;5030779;28;20338;-63
2023/12/15 08:38:44;;;;;;;7.90;5.80;;;;;;;;;;5048585;28;20216;-63
2023/12/15 08:41:12;;;;;;;7.73;5.53;;;;;;;;;;5043891;28;20219;-63
2023/12/15 08:43:39;;;;;;;11.37;6.47;;;;;;;;;;5048486;28;20243;-63
2023/12/15 08:46:07;;;;;;;8.70;6.03;;;;;;;;;;5034945;28;20210;-63
2023/12/15 08:48:34;;;;;;;12.60;5.37;;;;;;;;;;5046775;28;20238;-63
2023/12/15 08:51:01;;;;;;;16.33;6.43;;;;;;;;;;5048535;28;20215;-63
2023/12/15 08:53:28;;;;;;;11.10;5.80;;;;;;;;;;5047597;28;20204;-63
2023/12/15 08:55:55;;;;;;;7.10;5.57;;;;;;;;;;5046189;28;20207;-62
2023/12/15 08:58:23;;;;;;;14.43;5.90;;;;;;;;;;5035705;28;20200;-63
2023/12/15 09:00:51;;;;;;;7.93;5.63;;;;;;;;;;5046106;28;20239;-63
2023/12/15 09:03:18;;;;;;;14.20;5.70;;;;;;;;;;5036649;28;20208;-63
2023/12/15 09:05:45;;;;;;;13.00;5.93;;;;;;;;;;5028362;28;21051;-63
2023/12/15 09:08:12;;;;;;;9.10;5.37;;;;;;;;;;5029971;28;20208;-62
2023/12/15 09:10:43;;;;;;;12.80;6.40;;;;;;;;;;5047960;28;20599;-63
2023/12/15 09:13:10;;;;;;;8.10;6.00;;;;;;;;;;5048255;28;20307;-63
2023/12/15 09:15:39;;;;;;;12.03;6.17;;;;;;;;;;5035123;28;20200;-63
2023/12/15 09:18:06;;;;;;;8.77;6.57;;;;;;;;;;5027779;28;20272;-63
2023/12/15 09:20:33;;;;;;;9.03;5.50;;;;;;;;;;5029111;28;20308;-63
2023/12/15 09:23:00;;;;;;;18.30;6.37;;;;;;;;;;5035470;28;20975;-63
2023/12/15 09:25:27;;;;;;;8.00;5.07;;;;;;;;;;5047410;28;20214;-63
2023/12/15 09:27:54;;;;;;;9.07;5.30;;;;;;;;;;5047458;28;20299;-63
2023/12/15 09:30:21;;;;;;;8.70;6.40;;;;;;;;;;5047715;28;20215;-63
2023/12/15 09:32:49;;;;;;;9.77;6.10;;;;;;;;;;5047558;28;20593;-63
2023/12/15 09:35:18;;;;;;;8.23;5.83;;;;;;;;;;5047681;28;20432;-63
2023/12/15 09:37:45;;;;;;;9.00;6.03;;;;;;;;;;5047328;28;20212;-63
2023/12/15 09:40:19;;;;;;;9.60;6.30;;;;;;;;;;5041608;28;20541;-62
2023/12/15 09:42:46;;;;;;;10.67;6.57;;;;;;;;;;5042194;28;20234;-63
2023/12/15 09:45:13;;;;;;;12.23;6.90;;;;;;;;;;5044281;28;20238;-63
2023/12/15 09:47:43;;;;;;;10.13;6.37;;;;;;;;;;5030943;28;20219;-63
2023/12/15 09:50:12;;;;;;;11.60;6.77;;;;;;;;;;5036658;28;20686;-63
2023/12/15 09:52:40;;;;;;;10.43;6.33;;;;;;;;;;5044059;28;20200;-63
2023/12/15 09:55:08;;;;;;;10.80;7.17;;;;;;;;;;5035050;28;20581;-63
2023/12/15 09:57:35;;;;;;;12.20;7.10;;;;;;;;;;5027364;28;20216;-63
2023/12/15 10:00:03;;;;;;;10.07;7.00;;;;;;;;;;5027284;28;20211;-63
2023/12/15 10:02:30;;;;;;;12.60;7.40;;;;;;;;;;5027251;28;20240;-63
2023/12/15 10:04:57;;;;;;;10.03;7.10;;;;;;;;;;5027092;28;20671;-63
2023/12/15 10:07:25;;;;;;;12.30;6.27;;;;;;;;;;5039693;28;20215;-63
2023/12/15 10:09:53;;;;;;;10.63;6.53;;;;;;;;;;5045569;28;20238;-63
2023/12/15 10:12:21;;;;;;;9.57;6.67;;;;;;;;;;5043436;28;20210;-63
2023/12/15 10:15:07;;;;;;;13.33;6.87;;;;;;;;;;5047320;28;20211;-63
2023/12/15 10:17:35;;;;;;;12.40;6.97;;;;;;;;;;5044386;28;20235;-63
2023/12/15 10:20:06;;;;;;;12.43;7.27;;;;;;;;;;5035354;28;20212;-62
2023/12/15 10:22:34;;;;;;;12.43;7.17;;;;;;;;;;5028452;28;20293;-63
2023/12/15 10:25:02;;;;;;;11.60;7.30;;;;;;;;;;5034711;28;20226;-63
2023/12/15 10:27:29;;;;;;;10.83;6.77;;;;;;;;;;5041428;28;20212;-62
2023/12/15 10:29:56;;;;;;;11.07;7.03;;;;;;;;;;5040889;28;20214;-63
2023/12/15 10:32:24;;;;;;;10.63;7.27;;;;;;;;;;5042792;28;20996;-63
2023/12/15 10:34:52;;;;;;;9.43;6.53;;;;;;;;;;5032292;28;20230;-62
2023/12/15 10:37:19;;;;;;;13.53;7.40;;;;;;;;;;5038522;28;20970;-63
2023/12/15 10:39:47;;;;;;;11.73;7.07;;;;;;;;;;5029338;28;20213;-63
2023/12/15 10:42:15;;;;;;;12.97;7.40;;;;;;;;;;5032487;28;20227;-63
2023/12/15 10:44:42;;;;;;;13.57;7.80;;;;;;;;;;5038080;28;20235;-63
2023/12/15 10:47:09;;;;;;;13.87;7.97;;;;;;;;;;5028815;28;20204;-63
2023/12/15 10:49:37;;;;;;;10.43;7.30;;;;;;;;;;5032189;28;20298;-62
2023/12/15 10:52:04;;;;;;;12.53;8.13;;;;;;;;;;5030678;28;20212;-63
2023/12/15 10:54:33;;;;;;;12.90;7.83;;;;;;;;;;5036036;28;20675;-63
2023/12/15 10:57:02;;;;;;;11.07;7.63;;;;;;;;;;5036343;28;20212;-63
2023/12/15 10:59:30;;;;;;;13.37;7.57;;;;;;;;;;5040039;28;20208;-63
2023/12/15 11:01:57;;;;;;;16.30;8.00;;;;;;;;;;5042912;28;20322;-64
2023/12/15 11:04:24;;;;;;;10.67;7.47;;;;;;;;;;5030186;28;20573;-64
2023/12/15 11:06:51;;;;;;;17.97;8.20;;;;;;;;;;5026522;28;20219;-63
2023/12/15 11:09:29;;;;;;;11.53;7.43;;;;;;;;;;5026414;28;20215;-63
2023/12/15 11:12:15;;;;;;;15.53;8.43;;;;;;;;;;5036525;28;20203;-63
2023/12/15 11:14:43;;;;;;;17.07;9.07;;;;;;;;;;5035734;28;20214;-63
2023/12/15 11:17:11;;;;;;;18.90;9.27;;;;;;;;;;5033517;28;20250;-63
2023/12/15 11:19:38;;;;;;;13.20;8.43;;;;;;;;;;5026185;28;20208;-64
2023/12/15 11:22:08;;;;;;;12.43;7.80;;;;;;;;;;5041035;28;20228;-63
2023/12/15 11:24:36;;;;;;;14.13;9.13;;;;;;;;;;5024277;28;20258;-62
2023/12/15 11:27:03;;;;;;;14.90;9.40;;;;;;;;;;5038456;28;20334;-63
2023/12/15 11:29:35;;;;;;;17.90;8.63;;;;;;;;;;5044260;28;20208;-62
2023/12/15 11:32:17;;;;;;;15.63;8.67;;;;;;;;;;5034572;28;20249;-62
2023/12/15 11:34:46;;;;;;;11.93;7.77;;;;;;;;;;5035567;28;20215;-63
2023/12/15 11:37:14;;;;;;;13.47;7.93;;;;;;;;;;5032726;28;20200;-62
2023/12/15 11:39:41;;;;;;;12.70;7.30;;;;;;;;;;5037445;28;20208;-63
2023/12/15 11:42:08;;;;;;;10.40;7.67;;;;;;;;;;5044452;28;20227;-62
2023/12/15 11:44:36;;;;;;;11.10;7.40;;;;;;;;;;5045476;28;20215;-63
2023/12/15 11:47:03;;;;;;;12.17;8.10;;;;;;;;;;5038734;28;20432;-64
2023/12/15 11:49:31;;;;;;;12.90;8.13;;;;;;;;;;5033984;28;20665;-64
2023/12/15 11:52:02;;;;;;;12.30;7.97;;;;;;;;;;5034376;28;20676;-63
2023/12/15 11:54:31;;;;;;;12.77;7.87;;;;;;;;;;5042441;28;20805;-63
2023/12/15 11:56:58;;;;;;;12.60;8.27;;;;;;;;;;5047710;28;20212;-64
2023/12/15 11:59:25;;;;;;;13.63;8.27;;;;;;;;;;5036277;28;20270;-65
2023/12/15 12:01:52;;;;;;;11.27;7.57;;;;;;;;;;5048914;28;20709;-63
2023/12/15 12:04:19;;;;;;;12.07;7.57;;;;;;;;;;5048511;28;20208;-63
2023/12/15 12:06:47;;;;;;;13.07;8.47;;;;;;;;;;5048089;28;20215;-64
2023/12/15 12:09:15;;;;;;;12.20;8.03;;;;;;;;;;5031404;28;20686;-65
2023/12/15 12:11:44;;;;;;;11.97;7.97;;;;;;;;;;5034094;28;20199;-63
2023/12/15 12:14:11;;;;;;;16.30;8.07;;;;;;;;;;5046818;28;20217;-64
2023/12/15 12:16:38;;;;;;;12.53;7.30;;;;;;;;;;5042236;28;20592;-62
2023/12/15 12:19:05;;;;;;;12.43;7.70;;;;;;;;;;5030751;28;20216;-64
2023/12/15 12:21:33;;;;;;;12.70;7.50;;;;;;;;;;5033984;28;20200;-64
2023/12/15 12:24:00;;;;;;;13.43;7.40;;;;;;;;;;5046546;28;20242;-64
2023/12/15 12:26:29;;;;;;;13.57;7.70;;;;;;;;;;5047990;28;20227;-63
2023/12/15 12:28:57;;;;;;;8.57;6.60;;;;;;;;;;5046400;28;20211;-65
2023/12/15 12:31:25;;;;;;;10.53;6.47;;;;;;;;;;5036179;28;20209;-66
2023/12/15 12:33:52;;;;;;;9.80;6.67;;;;;;;;;;5035930;28;20282;-66
2023/12/15 12:36:19;;;;;;;9.60;6.47;;;;;;;;;;5026867;28;20212;-64
2023/12/15 12:38:46;;;;;;;11.60;7.17;;;;;;;;;;5044170;28;20216;-64
2023/12/15 12:41:13;;;;;;;8.83;6.67;;;;;;;;;;5039850;28;20200;-65
2023/12/15 12:43:42;;;;;;;11.37;7.27;;;;;;;;;;5046468;28;20800;-65
2023/12/15 12:46:10;;;;;;;8.30;6.30;;;;;;;;;;5037413;28;20235;-67
2023/12/15 12:48:37;;;;;;;10.07;7.40;;;;;;;;;;5028916;28;20208;-65
2023/12/15 12:51:05;;;;;;;10.63;6.93;;;;;;;;;;5036735;28;20663;-65
2023/12/15 12:53:32;;;;;;;10.13;6.67;;;;;;;;;;5036897;28;20230;-66
2023/12/15 12:55:59;;;;;;;14.23;6.80;;;;;;;;;;5047284;28;20670;-66
2023/12/15 12:58:26;;;;;;;7.43;5.73;;;;;;;;;;5030120;28;20212;-65
2023/12/15 13:00:55;;;;;;;9.20;6.10;;;;;;;;;;5031384;28;20207;-66
2023/12/15 13:03:22;;;;;;;45.42;18.58;;;;;;;;;;5046514;28;20455;-67
2023/12/15 13:05:49;;;;;;;37.30;15.23;;;;;;;;;;5047533;28;20674;-65
2023/12/15 13:08:16;;;;;;;17.57;9.03;;;;;;;;;;5047826;28;20218;-65
2023/12/15 13:10:44;;;;;;;19.23;7.70;;;;;;;;;;5040962;28;20215;-65
2023/12/15 13:13:12;;;;;;;10.00;6.88;;;;;;;;;;5046748;28;20459;-65
2023/12/15 13:15:39;;;;;;;11.33;6.00;;;;;;;;;;5040227;28;20213;-64
2023/12/15 13:18:09;;;;;;;6.47;5.63;;;;;;;;;;5030378;28;20242;-64
2023/12/15 13:20:37;;;;;;;6.73;4.90;;;;;;;;;;5047875;28;20452;-65
2023/12/15 13:23:04;;;;;;;5.40;4.67;;;;;;;;;;5048009;28;20234;-65
2023/12/15 13:25:32;;;;;;;4.53;4.00;;;;;;;;;;5047639;28;20329;-62
2023/12/15 13:27:59;;;;;;;4.27;3.70;;;;;;;;;;5047637;28;20211;-65
2023/12/15 13:30:26;;;;;;;4.00;3.70;;;;;;;;;;5047286;28;20204;-64
2023/12/15 13:32:53;;;;;;;4.20;3.60;;;;;;;;;;5045745;28;20200;-64
2023/12/15 13:35:23;;;;;;;4.27;3.63;;;;;;;;;;5046918;28;20563;-64
2023/12/15 13:37:50;;;;;;;6.27;5.63;;;;;;;;;;5047378;28;20303;-65
2023/12/15 13:42:58;;;;;;;4.50;4.10;;;;;;;;;;5035941;28;20266;-64
2023/12/15 13:45:25;;;;;;;3.43;3.17;;;;;;;;;;5038759;28;20294;-65
2023/12/15 13:47:52;;;;;;;3.47;3.10;;;;;;;;;;5040745;28;20223;-64
2023/12/15 13:50:21;;;;;;;4.20;3.20;;;;;;;;;;5045579;28;20211;-64
2023/12/15 13:52:50;;;;;;;3.70;3.20;;;;;;;;;;5047082;28;20207;-65
2023/12/15 13:55:17;;;;;;;7.33;4.13;;;;;;;;;;5046730;28;20242;-64
2023/12/15 13:57:45;;;;;;;4.63;3.57;;;;;;;;;;5047301;28;20212;-64
2023/12/15 14:00:13;;;;;;;4.97;3.27;;;;;;;;;;5047351;28;20670;-64
2023/12/15 14:02:40;;;;;;;3.57;3.27;;;;;;;;;;5046825;28;20314;-64
2023/12/15 14:05:07;;;;;;;3.80;3.60;;;;;;;;;;5047210;28;20215;-64
2023/12/15 14:07:34;;;;;;;4.40;4.10;;;;;;;;;;5047356;28;20222;-64
2023/12/15 14:10:05;;;;;;;4.87;4.37;;;;;;;;;;5031544;28;20212;-64
2023/12/15 14:12:32;;;;;;;4.40;3.80;;;;;;;;;;5037663;28;20271;-64
2023/12/15 14:14:59;;;;;;;3.90;3.60;;;;;;;;;;5045708;28;20315;-64
2023/12/15 14:17:27;;;;;;;4.10;3.40;;;;;;;;;;5044394;28;20231;-64
2023/12/15 14:19:54;;;;;;;3.00;2.80;;;;;;;;;;5032476;28;20656;-63
2023/12/15 14:22:23;;;;;;;3.53;2.10;;;;;;;;;;5037287;28;20637;-63
2023/12/15 14:24:50;;;;;;;2.20;2.10;;;;;;;;;;5045564;28;20670;-66
2023/12/15 14:27:18;;;;;;;3.00;2.80;;;;;;;;;;5032214;28;20204;-67
2023/12/15 14:29:45;;;;;;;2.63;2.47;;;;;;;;;;5035750;28;20208;-65
2023/12/15 14:32:12;;;;;;;2.43;2.33;;;;;;;;;;5042482;28;20208;-64
2023/12/15 14:34:39;;;;;;;2.93;2.63;;;;;;;;;;5046092;28;20235;-64
2023/12/15 14:37:06;;;;;;;2.40;2.20;;;;;;;;;;5045106;28;20212;-64
2023/12/15 14:39:37;;;;;;;3.33;3.03;;;;;;;;;;5035919;28;20702;-66
2023/12/15 14:42:05;;;;;;;2.33;2.23;;;;;;;;;;5036477;28;20208;-67